Terminal Aerodrome Forecast
Issued by NWS

Home | Current Version | Previous Version | Text Only | Print | Product List | Glossary On
Versions: 1 2 3 4 5 6 7 8 9 10 11 12 13 14 15 16 17 18 19 20 21
000
FTUS45 KREV 281700
TAFCXP
TAF
KCXP 281720Z 2818/2918 VRB03KT P6SM FEW250
     FM282100 26012G20KT P6SM FEW100 SCT250
     FM290400 VRB03KT P6SM BKN250=

USA.gov is the U.S. government's official web portal to all federal, state and local government web resources and services.